RJCB(METAR)
07/17 15:00
METAR RJCB 170600Z VRB01KT 9999 FEW003 SCT008 BKN010 20/18 Q1015 RMK
1ST003 4ST008 7ST010 A2998=
戻る
トップページへ戻る
IMOC Co,.Ltd.